sensor_id;sensor_type;location;lat;lon;timestamp;temperature;humidity
1347;DHT22;667;48.796;9.480;2024-02-26T00:02:16;8.80;73.40
1347;DHT22;667;48.796;9.480;2024-02-26T00:04:42;8.80;73.50
1347;DHT22;667;48.796;9.480;2024-02-26T00:07:08;8.80;73.60
1347;DHT22;667;48.796;9.480;2024-02-26T00:09:33;8.80;73.70
1347;DHT22;667;48.796;9.480;2024-02-26T00:12:04;8.80;73.90
1347;DHT22;667;48.796;9.480;2024-02-26T00:14:31;8.80;74.00
1347;DHT22;667;48.796;9.480;2024-02-26T00:16:56;8.80;74.00
1347;DHT22;667;48.796;9.480;2024-02-26T00:19:22;8.80;74.00
1347;DHT22;667;48.796;9.480;2024-02-26T00:21:48;8.80;74.20
1347;DHT22;667;48.796;9.480;2024-02-26T00:24:13;8.80;74.30
1347;DHT22;667;48.796;9.480;2024-02-26T00:26:39;8.80;74.30
1347;DHT22;667;48.796;9.480;2024-02-26T00:29:05;8.80;74.10
1347;DHT22;667;48.796;9.480;2024-02-26T00:31:30;8.80;74.10
1347;DHT22;667;48.796;9.480;2024-02-26T00:33:56;8.80;74.10
1347;DHT22;667;48.796;9.480;2024-02-26T00:36:21;8.80;74.10
1347;DHT22;667;48.796;9.480;2024-02-26T00:38:47;8.80;74.00
1347;DHT22;667;48.796;9.480;2024-02-26T00:41:17;8.80;74.00
1347;DHT22;667;48.796;9.480;2024-02-26T00:43:42;8.80;74.00
1347;DHT22;667;48.796;9.480;2024-02-26T00:46:08;8.80;74.00
1347;DHT22;667;48.796;9.480;2024-02-26T00:48:33;8.80;74.10
1347;DHT22;667;48.796;9.480;2024-02-26T00:50:59;8.80;74.10
1347;DHT22;667;48.796;9.480;2024-02-26T00:53:24;8.70;74.00
1347;DHT22;667;48.796;9.480;2024-02-26T00:55:50;8.70;74.00
1347;DHT22;667;48.796;9.480;2024-02-26T00:58:16;8.70;74.00
1347;DHT22;667;48.796;9.480;2024-02-26T01:00:42;8.70;74.10
1347;DHT22;667;48.796;9.480;2024-02-26T01:03:07;8.70;73.90
1347;DHT22;667;48.796;9.480;2024-02-26T01:05:35;8.70;73.90
1347;DHT22;667;48.796;9.480;2024-02-26T01:08:01;8.70;74.00
1347;DHT22;667;48.796;9.480;2024-02-26T01:10:26;8.70;74.00
1347;DHT22;667;48.796;9.480;2024-02-26T01:12:52;8.70;74.20
1347;DHT22;667;48.796;9.480;2024-02-26T01:15:18;8.70;74.20
1347;DHT22;667;48.796;9.480;2024-02-26T01:17:47;8.70;74.10
1347;DHT22;667;48.796;9.480;2024-02-26T01:20:12;8.70;74.10
1347;DHT22;667;48.796;9.480;2024-02-26T01:22:38;8.70;74.20
1347;DHT22;667;48.796;9.480;2024-02-26T01:25:06;8.70;74.20
1347;DHT22;667;48.796;9.480;2024-02-26T01:27:32;8.70;74.20
1347;DHT22;667;48.796;9.480;2024-02-26T01:29:58;8.70;74.30
1347;DHT22;667;48.796;9.480;2024-02-26T01:32:23;8.70;74.30
1347;DHT22;667;48.796;9.480;2024-02-26T01:34:49;8.70;74.40
1347;DHT22;667;48.796;9.480;2024-02-26T01:37:15;8.70;74.40
1347;DHT22;667;48.796;9.480;2024-02-26T01:39:40;8.70;74.40
1347;DHT22;667;48.796;9.480;2024-02-26T01:42:07;8.80;74.50
1347;DHT22;667;48.796;9.480;2024-02-26T01:44:32;8.80;75.30
1347;DHT22;667;48.796;9.480;2024-02-26T01:46:59;8.80;74.60
1347;DHT22;667;48.796;9.480;2024-02-26T01:49:27;8.80;74.50
1347;DHT22;667;48.796;9.480;2024-02-26T01:51:54;8.80;74.30
1347;DHT22;667;48.796;9.480;2024-02-26T01:54:19;8.80;74.20
1347;DHT22;667;48.796;9.480;2024-02-26T01:56:46;8.80;74.20
1347;DHT22;667;48.796;9.480;2024-02-26T01:59:11;8.70;74.20
1347;DHT22;667;48.796;9.480;2024-02-26T02:01:39;8.70;74.30
1347;DHT22;667;48.796;9.480;2024-02-26T02:04:07;8.70;74.30
1347;DHT22;667;48.796;9.480;2024-02-26T02:06:33;8.70;74.30
1347;DHT22;667;48.796;9.480;2024-02-26T02:08:58;8.70;74.40
1347;DHT22;667;48.796;9.480;2024-02-26T02:11:26;8.70;74.60
1347;DHT22;667;48.796;9.480;2024-02-26T02:13:51;8.70;74.80
1347;DHT22;667;48.796;9.480;2024-02-26T02:16:17;8.70;74.80
1347;DHT22;667;48.796;9.480;2024-02-26T02:18:42;8.70;74.80
1347;DHT22;667;48.796;9.480;2024-02-26T02:21:08;8.70;74.80
1347;DHT22;667;48.796;9.480;2024-02-26T02:23:33;8.70;74.70
1347;DHT22;667;48.796;9.480;2024-02-26T02:25:59;8.70;74.70
1347;DHT22;667;48.796;9.480;2024-02-26T02:28:26;8.70;74.60
1347;DHT22;667;48.796;9.480;2024-02-26T02:30:52;8.70;74.70
1347;DHT22;667;48.796;9.480;2024-02-26T02:33:18;8.70;74.60
1347;DHT22;667;48.796;9.480;2024-02-26T02:35:44;8.70;74.60
1347;DHT22;667;48.796;9.480;2024-02-26T02:38:09;8.80;74.60
1347;DHT22;667;48.796;9.480;2024-02-26T02:40:35;8.80;74.60
1347;DHT22;667;48.796;9.480;2024-02-26T02:43:01;8.80;74.60
1347;DHT22;667;48.796;9.480;2024-02-26T02:45:30;8.80;74.30
1347;DHT22;667;48.796;9.480;2024-02-26T02:47:56;8.80;74.30
1347;DHT22;667;48.796;9.480;2024-02-26T02:50:21;8.80;74.30
1347;DHT22;667;48.796;9.480;2024-02-26T02:52:47;8.80;74.20
1347;DHT22;667;48.796;9.480;2024-02-26T02:55:15;8.80;74.20
1347;DHT22;667;48.796;9.480;2024-02-26T02:57:41;8.90;74.40
1347;DHT22;667;48.796;9.480;2024-02-26T03:00:09;8.80;74.30
1347;DHT22;667;48.796;9.480;2024-02-26T03:02:34;8.90;74.60
1347;DHT22;667;48.796;9.480;2024-02-26T03:05:02;8.80;75.10
1347;DHT22;667;48.796;9.480;2024-02-26T03:07:27;8.90;74.50
1347;DHT22;667;48.796;9.480;2024-02-26T03:09:53;8.80;74.50
1347;DHT22;667;48.796;9.480;2024-02-26T03:12:19;8.80;74.50
1347;DHT22;667;48.796;9.480;2024-02-26T03:14:44;8.80;74.50
1347;DHT22;667;48.796;9.480;2024-02-26T03:17:10;8.80;74.60
1347;DHT22;667;48.796;9.480;2024-02-26T03:19:35;8.80;74.30
1347;DHT22;667;48.796;9.480;2024-02-26T03:22:01;8.80;74.30
1347;DHT22;667;48.796;9.480;2024-02-26T03:24:27;8.80;74.30
1347;DHT22;667;48.796;9.480;2024-02-26T03:26:53;8.80;74.40
1347;DHT22;667;48.796;9.480;2024-02-26T03:29:19;8.80;74.40
1347;DHT22;667;48.796;9.480;2024-02-26T03:31:44;8.80;74.20
1347;DHT22;667;48.796;9.480;2024-02-26T03:34:10;8.90;74.30
1347;DHT22;667;48.796;9.480;2024-02-26T03:36:37;8.90;74.30
1347;DHT22;667;48.796;9.480;2024-02-26T03:39:02;8.90;74.40
1347;DHT22;667;48.796;9.480;2024-02-26T03:41:33;8.90;74.40
1347;DHT22;667;48.796;9.480;2024-02-26T03:43:58;8.90;74.30
1347;DHT22;667;48.796;9.480;2024-02-26T03:46:24;8.90;74.00
1347;DHT22;667;48.796;9.480;2024-02-26T03:48:50;8.90;73.70
1347;DHT22;667;48.796;9.480;2024-02-26T03:51:15;8.90;73.60
1347;DHT22;667;48.796;9.480;2024-02-26T03:53:41;8.90;73.30
1347;DHT22;667;48.796;9.480;2024-02-26T03:56:07;8.90;73.30
1347;DHT22;667;48.796;9.480;2024-02-26T03:58:32;8.90;73.20
1347;DHT22;667;48.796;9.480;2024-02-26T04:00:59;8.90;73.20
1347;DHT22;667;48.796;9.480;2024-02-26T04:03:25;8.90;73.10
1347;DHT22;667;48.796;9.480;2024-02-26T04:05:51;9.00;73.20
1347;DHT22;667;48.796;9.480;2024-02-26T04:08:16;9.00;73.30
1347;DHT22;667;48.796;9.480;2024-02-26T04:10:42;9.00;73.40
1347;DHT22;667;48.796;9.480;2024-02-26T04:13:08;9.00;73.50
1347;DHT22;667;48.796;9.480;2024-02-26T04:15:33;9.00;73.60
1347;DHT22;667;48.796;9.480;2024-02-26T04:17:59;9.00;73.50
1347;DHT22;667;48.796;9.480;2024-02-26T04:20:25;9.00;73.60
1347;DHT22;667;48.796;9.480;2024-02-26T04:22:50;9.00;73.70
1347;DHT22;667;48.796;9.480;2024-02-26T04:25:16;9.00;73.60
1347;DHT22;667;48.796;9.480;2024-02-26T04:27:41;9.00;73.70
1347;DHT22;667;48.796;9.480;2024-02-26T04:30:08;9.00;74.00
1347;DHT22;667;48.796;9.480;2024-02-26T04:32:34;9.00;74.30
1347;DHT22;667;48.796;9.480;2024-02-26T04:35:00;9.00;74.40
1347;DHT22;667;48.796;9.480;2024-02-26T04:37:26;9.00;74.60
1347;DHT22;667;48.796;9.480;2024-02-26T04:39:59;9.00;74.80
1347;DHT22;667;48.796;9.480;2024-02-26T04:42:25;9.00;75.00
1347;DHT22;667;48.796;9.480;2024-02-26T04:44:51;9.00;75.20
1347;DHT22;667;48.796;9.480;2024-02-26T04:47:16;9.00;75.10
1347;DHT22;667;48.796;9.480;2024-02-26T04:49:42;9.00;75.10
1347;DHT22;667;48.796;9.480;2024-02-26T04:52:07;9.00;75.20
1347;DHT22;667;48.796;9.480;2024-02-26T04:54:33;9.00;75.20
1347;DHT22;667;48.796;9.480;2024-02-26T04:56:59;9.00;75.30
1347;DHT22;667;48.796;9.480;2024-02-26T04:59:24;8.90;75.20
1347;DHT22;667;48.796;9.480;2024-02-26T05:01:50;8.90;76.00
1347;DHT22;667;48.796;9.480;2024-02-26T05:04:18;8.90;75.40
1347;DHT22;667;48.796;9.480;2024-02-26T05:06:43;8.90;75.50
1347;DHT22;667;48.796;9.480;2024-02-26T05:09:09;8.90;75.40
1347;DHT22;667;48.796;9.480;2024-02-26T05:11:35;8.90;75.30
1347;DHT22;667;48.796;9.480;2024-02-26T05:14:00;8.90;75.20
1347;DHT22;667;48.796;9.480;2024-02-26T05:16:26;8.90;75.10
1347;DHT22;667;48.796;9.480;2024-02-26T05:18:52;8.90;74.90
1347;DHT22;667;48.796;9.480;2024-02-26T05:21:18;8.90;74.90
1347;DHT22;667;48.796;9.480;2024-02-26T05:23:44;8.90;75.00
1347;DHT22;667;48.796;9.480;2024-02-26T05:26:10;8.90;75.10
1347;DHT22;667;48.796;9.480;2024-02-26T05:28:36;8.90;74.90
1347;DHT22;667;48.796;9.480;2024-02-26T05:31:04;8.90;75.00
1347;DHT22;667;48.796;9.480;2024-02-26T05:33:30;8.90;75.10
1347;DHT22;667;48.796;9.480;2024-02-26T05:35:55;8.90;75.20
1347;DHT22;667;48.796;9.480;2024-02-26T05:38:21;8.90;75.20
1347;DHT22;667;48.796;9.480;2024-02-26T05:40:47;8.90;75.30
1347;DHT22;667;48.796;9.480;2024-02-26T05:43:12;8.90;75.40
1347;DHT22;667;48.796;9.480;2024-02-26T05:45:40;8.90;75.70
1347;DHT22;667;48.796;9.480;2024-02-26T05:48:06;8.90;75.70
1347;DHT22;667;48.796;9.480;2024-02-26T05:50:32;8.90;75.70
1347;DHT22;667;48.796;9.480;2024-02-26T05:52:57;8.90;75.80
1347;DHT22;667;48.796;9.480;2024-02-26T05:55:23;8.90;76.00
1347;DHT22;667;48.796;9.480;2024-02-26T05:57:48;8.90;76.00
1347;DHT22;667;48.796;9.480;2024-02-26T06:00:15;8.90;76.10
1347;DHT22;667;48.796;9.480;2024-02-26T06:02:40;8.90;76.20
1347;DHT22;667;48.796;9.480;2024-02-26T06:05:06;8.80;76.20
1347;DHT22;667;48.796;9.480;2024-02-26T06:07:34;8.90;76.40
1347;DHT22;667;48.796;9.480;2024-02-26T06:10:00;8.90;76.50
1347;DHT22;667;48.796;9.480;2024-02-26T06:12:26;8.90;76.60
1347;DHT22;667;48.796;9.480;2024-02-26T06:14:53;8.90;76.70
1347;DHT22;667;48.796;9.480;2024-02-26T06:17:19;8.90;76.90
1347;DHT22;667;48.796;9.480;2024-02-26T06:19:45;8.90;76.90
1347;DHT22;667;48.796;9.480;2024-02-26T06:22:10;8.90;77.00
1347;DHT22;667;48.796;9.480;2024-02-26T06:24:36;8.90;77.00
1347;DHT22;667;48.796;9.480;2024-02-26T06:27:03;8.90;77.00
1347;DHT22;667;48.796;9.480;2024-02-26T06:29:28;8.90;77.20
1347;DHT22;667;48.796;9.480;2024-02-26T06:31:54;8.80;77.10
1347;DHT22;667;48.796;9.480;2024-02-26T06:34:20;8.80;77.20
1347;DHT22;667;48.796;9.480;2024-02-26T06:36:46;8.80;77.50
1347;DHT22;667;48.796;9.480;2024-02-26T06:39:12;8.80;77.50
1347;DHT22;667;48.796;9.480;2024-02-26T06:41:38;8.80;77.30
1347;DHT22;667;48.796;9.480;2024-02-26T06:44:04;8.70;77.20
1347;DHT22;667;48.796;9.480;2024-02-26T06:46:30;8.70;77.40
1347;DHT22;667;48.796;9.480;2024-02-26T06:48:56;8.70;77.50
1347;DHT22;667;48.796;9.480;2024-02-26T06:51:22;8.80;77.60
1347;DHT22;667;48.796;9.480;2024-02-26T06:53:48;8.80;77.60
1347;DHT22;667;48.796;9.480;2024-02-26T06:56:14;8.80;77.70
1347;DHT22;667;48.796;9.480;2024-02-26T06:58:39;8.80;77.60
1347;DHT22;667;48.796;9.480;2024-02-26T07:01:05;8.80;77.60
1347;DHT22;667;48.796;9.480;2024-02-26T07:03:33;8.80;77.80
1347;DHT22;667;48.796;9.480;2024-02-26T07:05:59;8.80;77.80
1347;DHT22;667;48.796;9.480;2024-02-26T07:08:24;8.80;77.70
1347;DHT22;667;48.796;9.480;2024-02-26T07:10:50;8.80;77.70
1347;DHT22;667;48.796;9.480;2024-02-26T07:13:15;8.80;77.60
1347;DHT22;667;48.796;9.480;2024-02-26T07:15:41;8.80;77.70
1347;DHT22;667;48.796;9.480;2024-02-26T07:18:07;8.80;77.70
1347;DHT22;667;48.796;9.480;2024-02-26T07:20:32;8.80;77.80
1347;DHT22;667;48.796;9.480;2024-02-26T07:22:58;8.80;77.80
1347;DHT22;667;48.796;9.480;2024-02-26T07:25:24;8.90;77.90
1347;DHT22;667;48.796;9.480;2024-02-26T07:27:50;8.90;77.90
1347;DHT22;667;48.796;9.480;2024-02-26T07:30:16;8.90;77.90
1347;DHT22;667;48.796;9.480;2024-02-26T07:32:42;8.90;78.00
1347;DHT22;667;48.796;9.480;2024-02-26T07:35:08;9.00;78.10
1347;DHT22;667;48.796;9.480;2024-02-26T07:37:34;9.00;78.10
1347;DHT22;667;48.796;9.480;2024-02-26T07:40:00;9.00;78.30
1347;DHT22;667;48.796;9.480;2024-02-26T07:42:25;9.00;78.40
1347;DHT22;667;48.796;9.480;2024-02-26T07:44:51;9.10;78.50
1347;DHT22;667;48.796;9.480;2024-02-26T07:47:18;9.10;78.50
1347;DHT22;667;48.796;9.480;2024-02-26T07:49:43;9.10;78.50
1347;DHT22;667;48.796;9.480;2024-02-26T07:52:10;9.10;78.40
1347;DHT22;667;48.796;9.480;2024-02-26T07:54:35;9.20;78.30
1347;DHT22;667;48.796;9.480;2024-02-26T07:57:01;9.20;78.20
1347;DHT22;667;48.796;9.480;2024-02-26T07:59:29;9.20;78.20
1347;DHT22;667;48.796;9.480;2024-02-26T08:01:54;9.20;78.20
1347;DHT22;667;48.796;9.480;2024-02-26T08:04:20;9.30;78.20
1347;DHT22;667;48.796;9.480;2024-02-26T08:06:45;9.30;78.00
1347;DHT22;667;48.796;9.480;2024-02-26T08:09:11;9.30;77.90
1347;DHT22;667;48.796;9.480;2024-02-26T08:11:38;9.40;77.90
1347;DHT22;667;48.796;9.480;2024-02-26T08:14:04;9.40;77.70
1347;DHT22;667;48.796;9.480;2024-02-26T08:16:30;9.40;77.50
1347;DHT22;667;48.796;9.480;2024-02-26T08:18:55;9.40;77.40
1347;DHT22;667;48.796;9.480;2024-02-26T08:21:21;9.50;77.30
1347;DHT22;667;48.796;9.480;2024-02-26T08:23:46;9.50;77.10
1347;DHT22;667;48.796;9.480;2024-02-26T08:26:12;9.60;77.00
1347;DHT22;667;48.796;9.480;2024-02-26T08:28:38;9.60;77.10
1347;DHT22;667;48.796;9.480;2024-02-26T08:31:04;9.60;77.10
1347;DHT22;667;48.796;9.480;2024-02-26T08:33:30;9.70;77.20
1347;DHT22;667;48.796;9.480;2024-02-26T08:35:56;9.70;76.90
1347;DHT22;667;48.796;9.480;2024-02-26T08:38:22;9.70;76.40
1347;DHT22;667;48.796;9.480;2024-02-26T08:40:48;9.80;76.50
1347;DHT22;667;48.796;9.480;2024-02-26T08:43:14;9.80;76.40
1347;DHT22;667;48.796;9.480;2024-02-26T08:45:40;9.80;76.40
1347;DHT22;667;48.796;9.480;2024-02-26T08:48:05;9.80;76.40
1347;DHT22;667;48.796;9.480;2024-02-26T08:50:31;9.80;76.30
1347;DHT22;667;48.796;9.480;2024-02-26T08:52:57;9.80;76.20
1347;DHT22;667;48.796;9.480;2024-02-26T08:55:22;9.90;76.20
1347;DHT22;667;48.796;9.480;2024-02-26T08:57:48;9.90;76.10
1347;DHT22;667;48.796;9.480;2024-02-26T09:00:14;9.90;76.00
1347;DHT22;667;48.796;9.480;2024-02-26T09:02:41;10.00;74.90
1347;DHT22;667;48.796;9.480;2024-02-26T09:05:09;10.00;74.80
1347;DHT22;667;48.796;9.480;2024-02-26T09:07:35;10.00;74.50
1347;DHT22;667;48.796;9.480;2024-02-26T09:10:01;10.00;74.00
1347;DHT22;667;48.796;9.480;2024-02-26T09:12:27;10.00;73.50
1347;DHT22;667;48.796;9.480;2024-02-26T09:14:52;10.10;73.40
1347;DHT22;667;48.796;9.480;2024-02-26T09:17:18;10.10;73.10
1347;DHT22;667;48.796;9.480;2024-02-26T09:19:43;10.10;73.10
1347;DHT22;667;48.796;9.480;2024-02-26T09:22:09;10.10;72.80
1347;DHT22;667;48.796;9.480;2024-02-26T09:24:35;10.10;72.80
1347;DHT22;667;48.796;9.480;2024-02-26T09:27:01;10.20;72.90
1347;DHT22;667;48.796;9.480;2024-02-26T09:29:27;10.20;72.80
1347;DHT22;667;48.796;9.480;2024-02-26T09:31:52;10.30;72.90
1347;DHT22;667;48.796;9.480;2024-02-26T09:34:18;10.30;72.60
1347;DHT22;667;48.796;9.480;2024-02-26T09:36:44;10.30;72.40
1347;DHT22;667;48.796;9.480;2024-02-26T09:39:09;10.40;72.30
1347;DHT22;667;48.796;9.480;2024-02-26T09:41:37;10.40;72.20
1347;DHT22;667;48.796;9.480;2024-02-26T09:44:04;10.50;72.10
1347;DHT22;667;48.796;9.480;2024-02-26T09:46:30;10.50;71.70
1347;DHT22;667;48.796;9.480;2024-02-26T09:48:56;10.50;71.10
1347;DHT22;667;48.796;9.480;2024-02-26T09:51:26;10.60;70.80
1347;DHT22;667;48.796;9.480;2024-02-26T09:53:52;10.60;70.40
1347;DHT22;667;48.796;9.480;2024-02-26T09:56:19;10.60;70.80
1347;DHT22;667;48.796;9.480;2024-02-26T09:58:45;10.60;69.80
1347;DHT22;667;48.796;9.480;2024-02-26T10:01:18;10.60;69.50
1347;DHT22;667;48.796;9.480;2024-02-26T10:03:49;10.70;69.40
1347;DHT22;667;48.796;9.480;2024-02-26T10:06:17;10.70;69.30
1347;DHT22;667;48.796;9.480;2024-02-26T10:08:43;10.70;69.30
1347;DHT22;667;48.796;9.480;2024-02-26T10:11:10;10.80;69.10
1347;DHT22;667;48.796;9.480;2024-02-26T10:13:35;10.80;68.70
1347;DHT22;667;48.796;9.480;2024-02-26T10:16:02;10.90;68.40
1347;DHT22;667;48.796;9.480;2024-02-26T10:18:51;10.90;68.40
1347;DHT22;667;48.796;9.480;2024-02-26T10:21:18;11.00;68.50
1347;DHT22;667;48.796;9.480;2024-02-26T10:23:44;11.10;69.20
1347;DHT22;667;48.796;9.480;2024-02-26T10:26:12;11.20;69.10
1347;DHT22;667;48.796;9.480;2024-02-26T10:28:39;11.40;69.30
1347;DHT22;667;48.796;9.480;2024-02-26T10:31:04;11.50;68.90
1347;DHT22;667;48.796;9.480;2024-02-26T10:33:32;11.50;68.10
1347;DHT22;667;48.796;9.480;2024-02-26T10:35:58;11.60;67.50
1347;DHT22;667;48.796;9.480;2024-02-26T10:38:24;11.80;67.20
1347;DHT22;667;48.796;9.480;2024-02-26T10:40:49;11.90;67.30
1347;DHT22;667;48.796;9.480;2024-02-26T10:43:15;12.00;66.60
1347;DHT22;667;48.796;9.480;2024-02-26T10:45:42;12.10;66.20
1347;DHT22;667;48.796;9.480;2024-02-26T10:48:10;12.30;66.00
1347;DHT22;667;48.796;9.480;2024-02-26T10:50:36;12.40;66.20
1347;DHT22;667;48.796;9.480;2024-02-26T10:53:03;12.60;66.00
1347;DHT22;667;48.796;9.480;2024-02-26T10:55:31;12.70;64.20
1347;DHT22;667;48.796;9.480;2024-02-26T10:57:58;12.90;64.50
1347;DHT22;667;48.796;9.480;2024-02-26T11:00:24;13.00;63.80
1347;DHT22;667;48.796;9.480;2024-02-26T11:02:51;13.00;63.60
1347;DHT22;667;48.796;9.480;2024-02-26T11:05:17;13.10;62.90
1347;DHT22;667;48.796;9.480;2024-02-26T11:07:44;13.20;61.80
1347;DHT22;667;48.796;9.480;2024-02-26T11:10:11;13.30;61.70
1347;DHT22;667;48.796;9.480;2024-02-26T11:12:39;13.30;61.70
1347;DHT22;667;48.796;9.480;2024-02-26T11:15:05;13.30;61.20
1347;DHT22;667;48.796;9.480;2024-02-26T11:17:31;13.30;59.90
1347;DHT22;667;48.796;9.480;2024-02-26T11:19:59;13.40;59.30
1347;DHT22;667;48.796;9.480;2024-02-26T11:22:28;13.40;59.40
1347;DHT22;667;48.796;9.480;2024-02-26T11:24:54;13.40;59.20
1347;DHT22;667;48.796;9.480;2024-02-26T11:27:25;13.40;59.00
1347;DHT22;667;48.796;9.480;2024-02-26T11:29:55;13.40;59.10
1347;DHT22;667;48.796;9.480;2024-02-26T11:32:23;13.40;59.10
1347;DHT22;667;48.796;9.480;2024-02-26T11:34:49;13.40;58.70
1347;DHT22;667;48.796;9.480;2024-02-26T11:37:17;13.40;59.10
1347;DHT22;667;48.796;9.480;2024-02-26T11:39:43;13.40;59.10
1347;DHT22;667;48.796;9.480;2024-02-26T11:42:14;13.40;59.30
1347;DHT22;667;48.796;9.480;2024-02-26T11:44:40;13.40;59.70
1347;DHT22;667;48.796;9.480;2024-02-26T11:47:14;13.40;59.90
1347;DHT22;667;48.796;9.480;2024-02-26T11:49:43;13.50;60.10
1347;DHT22;667;48.796;9.480;2024-02-26T11:52:09;13.50;59.80
1347;DHT22;667;48.796;9.480;2024-02-26T11:57:28;13.60;59.20
1347;DHT22;667;48.796;9.480;2024-02-26T12:00:15;13.60;59.10
1347;DHT22;667;48.796;9.480;2024-02-26T12:02:50;13.50;59.00
1347;DHT22;667;48.796;9.480;2024-02-26T12:05:21;13.60;58.90
1347;DHT22;667;48.796;9.480;2024-02-26T12:08:09;13.60;58.80
1347;DHT22;667;48.796;9.480;2024-02-26T12:10:39;13.60;59.10
1347;DHT22;667;48.796;9.480;2024-02-26T12:13:12;13.60;59.10
1347;DHT22;667;48.796;9.480;2024-02-26T12:15:39;13.60;59.20
1347;DHT22;667;48.796;9.480;2024-02-26T12:18:07;13.70;59.40
1347;DHT22;667;48.796;9.480;2024-02-26T12:20:35;13.70;59.00
1347;DHT22;667;48.796;9.480;2024-02-26T12:23:02;13.70;58.50
1347;DHT22;667;48.796;9.480;2024-02-26T12:25:30;13.80;58.20
1347;DHT22;667;48.796;9.480;2024-02-26T12:27:57;13.80;58.20
1347;DHT22;667;48.796;9.480;2024-02-26T12:30:23;13.90;58.30
1347;DHT22;667;48.796;9.480;2024-02-26T12:32:50;14.00;57.60
1347;DHT22;667;48.796;9.480;2024-02-26T12:35:16;14.00;57.60
1347;DHT22;667;48.796;9.480;2024-02-26T12:37:43;14.10;56.60
1347;DHT22;667;48.796;9.480;2024-02-26T12:40:10;14.20;56.30
1347;DHT22;667;48.796;9.480;2024-02-26T12:42:36;14.20;56.50
1347;DHT22;667;48.796;9.480;2024-02-26T12:45:07;14.30;56.70
1347;DHT22;667;48.796;9.480;2024-02-26T12:47:38;14.30;56.80
1347;DHT22;667;48.796;9.480;2024-02-26T12:50:04;14.40;56.20
1347;DHT22;667;48.796;9.480;2024-02-26T12:52:34;14.40;55.70
1347;DHT22;667;48.796;9.480;2024-02-26T12:55:01;14.40;55.30
1347;DHT22;667;48.796;9.480;2024-02-26T12:57:31;14.40;55.00
1347;DHT22;667;48.796;9.480;2024-02-26T12:59:58;14.40;54.70
1347;DHT22;667;48.796;9.480;2024-02-26T13:02:24;14.50;54.90
1347;DHT22;667;48.796;9.480;2024-02-26T13:04:50;14.40;55.00
1347;DHT22;667;48.796;9.480;2024-02-26T13:07:16;14.50;55.00
1347;DHT22;667;48.796;9.480;2024-02-26T13:09:41;14.50;55.10
1347;DHT22;667;48.796;9.480;2024-02-26T13:12:08;14.60;54.80
1347;DHT22;667;48.796;9.480;2024-02-26T13:14:34;14.70;54.50
1347;DHT22;667;48.796;9.480;2024-02-26T13:17:00;14.80;55.40
1347;DHT22;667;48.796;9.480;2024-02-26T13:19:27;14.80;54.90
1347;DHT22;667;48.796;9.480;2024-02-26T13:21:53;14.80;54.80
1347;DHT22;667;48.796;9.480;2024-02-26T13:24:20;14.90;54.90
1347;DHT22;667;48.796;9.480;2024-02-26T13:26:45;14.90;54.90
1347;DHT22;667;48.796;9.480;2024-02-26T13:29:18;14.80;54.80
1347;DHT22;667;48.796;9.480;2024-02-26T13:31:44;14.80;55.00
1347;DHT22;667;48.796;9.480;2024-02-26T13:34:10;14.80;55.20
1347;DHT22;667;48.796;9.480;2024-02-26T13:36:35;14.80;55.00
1347;DHT22;667;48.796;9.480;2024-02-26T13:39:01;14.80;55.20
1347;DHT22;667;48.796;9.480;2024-02-26T13:41:27;14.70;55.20
1347;DHT22;667;48.796;9.480;2024-02-26T13:43:53;14.70;55.10
1347;DHT22;667;48.796;9.480;2024-02-26T13:46:19;14.70;55.20
1347;DHT22;667;48.796;9.480;2024-02-26T13:48:44;14.70;55.30
1347;DHT22;667;48.796;9.480;2024-02-26T13:51:10;14.70;55.20
1347;DHT22;667;48.796;9.480;2024-02-26T13:53:36;14.70;55.20
1347;DHT22;667;48.796;9.480;2024-02-26T13:56:02;14.70;54.90
1347;DHT22;667;48.796;9.480;2024-02-26T13:58:30;14.70;54.60
1347;DHT22;667;48.796;9.480;2024-02-26T14:00:57;14.70;55.40
1347;DHT22;667;48.796;9.480;2024-02-26T14:03:24;14.70;55.10
1347;DHT22;667;48.796;9.480;2024-02-26T14:05:50;14.70;55.20
1347;DHT22;667;48.796;9.480;2024-02-26T14:08:16;14.70;55.40
1347;DHT22;667;48.796;9.480;2024-02-26T14:10:41;14.80;55.40
1347;DHT22;667;48.796;9.480;2024-02-26T14:13:07;14.80;55.40
1347;DHT22;667;48.796;9.480;2024-02-26T14:15:34;14.80;55.50
1347;DHT22;667;48.796;9.480;2024-02-26T14:18:01;14.90;55.50
1347;DHT22;667;48.796;9.480;2024-02-26T14:20:28;14.90;55.40
1347;DHT22;667;48.796;9.480;2024-02-26T14:22:54;14.90;55.20
1347;DHT22;667;48.796;9.480;2024-02-26T14:25:20;14.90;55.50
1347;DHT22;667;48.796;9.480;2024-02-26T14:27:47;14.90;55.80
1347;DHT22;667;48.796;9.480;2024-02-26T14:30:13;15.00;55.90
1347;DHT22;667;48.796;9.480;2024-02-26T14:32:38;15.00;56.10
1347;DHT22;667;48.796;9.480;2024-02-26T14:35:08;15.10;55.70
1347;DHT22;667;48.796;9.480;2024-02-26T14:37:35;15.10;55.30
1347;DHT22;667;48.796;9.480;2024-02-26T14:40:01;15.10;55.00
1347;DHT22;667;48.796;9.480;2024-02-26T14:42:28;15.10;55.10
1347;DHT22;667;48.796;9.480;2024-02-26T14:44:54;15.10;55.40
1347;DHT22;667;48.796;9.480;2024-02-26T14:47:19;15.10;55.80
1347;DHT22;667;48.796;9.480;2024-02-26T14:49:45;15.10;55.80
1347;DHT22;667;48.796;9.480;2024-02-26T14:52:14;15.10;55.80
1347;DHT22;667;48.796;9.480;2024-02-26T14:54:39;15.10;55.70
1347;DHT22;667;48.796;9.480;2024-02-26T14:57:05;15.10;55.70
1347;DHT22;667;48.796;9.480;2024-02-26T14:59:32;15.10;55.90
1347;DHT22;667;48.796;9.480;2024-02-26T15:01:58;15.00;56.10
1347;DHT22;667;48.796;9.480;2024-02-26T15:04:26;15.00;56.20
1347;DHT22;667;48.796;9.480;2024-02-26T15:06:52;15.00;56.10
1347;DHT22;667;48.796;9.480;2024-02-26T15:09:18;15.00;56.00
1347;DHT22;667;48.796;9.480;2024-02-26T15:11:43;14.90;55.70
1347;DHT22;667;48.796;9.480;2024-02-26T15:14:10;14.90;55.80
1347;DHT22;667;48.796;9.480;2024-02-26T15:16:36;14.90;55.90
1347;DHT22;667;48.796;9.480;2024-02-26T15:19:02;14.90;56.00
1347;DHT22;667;48.796;9.480;2024-02-26T15:21:28;14.80;56.00
1347;DHT22;667;48.796;9.480;2024-02-26T15:23:54;14.80;56.10
1347;DHT22;667;48.796;9.480;2024-02-26T15:26:20;14.80;56.20
1347;DHT22;667;48.796;9.480;2024-02-26T15:28:46;14.80;56.40
1347;DHT22;667;48.796;9.480;2024-02-26T15:31:12;14.80;56.20
1347;DHT22;667;48.796;9.480;2024-02-26T15:33:37;14.70;56.10
1347;DHT22;667;48.796;9.480;2024-02-26T15:36:03;14.70;56.10
1347;DHT22;667;48.796;9.480;2024-02-26T15:38:29;14.70;56.20
1347;DHT22;667;48.796;9.480;2024-02-26T15:40:55;14.70;56.30
1347;DHT22;667;48.796;9.480;2024-02-26T15:43:20;14.60;56.10
1347;DHT22;667;48.796;9.480;2024-02-26T15:45:47;14.60;55.90
1347;DHT22;667;48.796;9.480;2024-02-26T15:48:13;14.60;55.80
1347;DHT22;667;48.796;9.480;2024-02-26T15:50:39;14.50;55.80
1347;DHT22;667;48.796;9.480;2024-02-26T15:53:08;14.50;55.80
1347;DHT22;667;48.796;9.480;2024-02-26T15:55:34;14.40;55.90
1347;DHT22;667;48.796;9.480;2024-02-26T15:58:00;14.40;56.00
1347;DHT22;667;48.796;9.480;2024-02-26T16:00:25;14.40;56.00
1347;DHT22;667;48.796;9.480;2024-02-26T16:02:51;14.40;56.00
1347;DHT22;667;48.796;9.480;2024-02-26T16:05:17;14.30;55.80
1347;DHT22;667;48.796;9.480;2024-02-26T16:07:51;14.30;55.70
1347;DHT22;667;48.796;9.480;2024-02-26T16:10:17;14.30;55.00
1347;DHT22;667;48.796;9.480;2024-02-26T16:12:47;14.20;54.40
1347;DHT22;667;48.796;9.480;2024-02-26T16:15:15;14.20;54.20
1347;DHT22;667;48.796;9.480;2024-02-26T16:17:43;14.10;54.10
1347;DHT22;667;48.796;9.480;2024-02-26T16:20:18;14.10;54.20
1347;DHT22;667;48.796;9.480;2024-02-26T16:22:47;14.00;54.30
1347;DHT22;667;48.796;9.480;2024-02-26T16:25:14;14.00;54.20